createdAt,value
2023-01-17T00:00:42.617Z,1.98
2023-01-17T00:03:09.004Z,1.94
2023-01-17T00:05:35.388Z,1.89
2023-01-17T00:08:01.775Z,1.73
2023-01-17T00:10:28.176Z,1.56
2023-01-17T00:12:54.561Z,1.53
2023-01-17T00:15:20.951Z,1.57
2023-01-17T00:17:47.325Z,1.66
2023-01-17T00:20:13.694Z,1.79
2023-01-17T00:22:40.126Z,1.81
2023-01-17T00:25:06.510Z,1.79
2023-01-17T00:27:32.879Z,1.75
2023-01-17T00:29:59.313Z,1.97
2023-01-17T00:32:25.776Z,2.12
2023-01-17T00:34:52.192Z,2.02
2023-01-17T00:37:18.561Z,2.21
2023-01-17T00:39:44.982Z,2.20
2023-01-17T00:42:11.366Z,2.39
2023-01-17T00:44:37.790Z,2.58
2023-01-17T00:47:04.192Z,2.52
2023-01-17T00:49:30.796Z,2.70
2023-01-17T00:51:57.283Z,2.75
2023-01-17T00:54:23.639Z,2.82
2023-01-17T00:56:50.039Z,3.15
2023-01-17T00:59:16.465Z,3.16
2023-01-17T01:01:42.989Z,3.25
2023-01-17T01:04:09.552Z,3.11
2023-01-17T01:06:35.928Z,3.20
2023-01-17T01:09:02.287Z,3.25
2023-01-17T01:11:28.692Z,3.09
2023-01-17T01:13:55.128Z,3.06
2023-01-17T01:16:21.508Z,3.08
2023-01-17T01:18:47.885Z,3.10
2023-01-17T01:21:14.331Z,2.93
2023-01-17T01:23:40.713Z,2.94
2023-01-17T01:26:07.083Z,2.80
2023-01-17T01:28:33.924Z,2.93
2023-01-17T01:31:00.316Z,3.05
2023-01-17T01:33:26.689Z,3.15
2023-01-17T01:35:53.067Z,3.33
2023-01-17T01:38:19.444Z,3.33
2023-01-17T01:40:45.865Z,3.45
2023-01-17T01:43:12.300Z,3.40
2023-01-17T01:45:38.690Z,3.48
2023-01-17T01:48:05.122Z,3.57
2023-01-17T01:50:31.495Z,3.77
2023-01-17T01:52:57.875Z,3.76
2023-01-17T01:55:24.266Z,3.65
2023-01-17T01:57:50.641Z,3.51
2023-01-17T02:00:17.080Z,3.50
2023-01-17T02:02:43.556Z,2.88
2023-01-17T02:05:09.958Z,3.02
2023-01-17T02:07:36.485Z,3.12
2023-01-17T02:10:02.888Z,3.05
2023-01-17T02:12:29.266Z,3.14
2023-01-17T02:14:55.691Z,3.06
2023-01-17T02:17:22.060Z,3.12
2023-01-17T02:19:48.430Z,3.18
2023-01-17T02:22:14.803Z,3.26
2023-01-17T02:24:41.177Z,3.31
2023-01-17T02:27:07.584Z,3.23
2023-01-17T02:29:33.952Z,3.31
2023-01-17T02:32:00.356Z,3.30
2023-01-17T02:34:26.686Z,3.38
2023-01-17T02:36:53.036Z,3.50
2023-01-17T02:39:19.425Z,3.62
2023-01-17T02:41:45.797Z,3.54
2023-01-17T02:44:12.187Z,3.67
2023-01-17T02:46:38.549Z,3.66
2023-01-17T02:49:04.956Z,3.44
2023-01-17T02:51:31.346Z,3.45
2023-01-17T02:53:57.723Z,3.56
2023-01-17T02:56:24.090Z,3.54
2023-01-17T02:58:50.524Z,3.62
2023-01-17T03:01:16.983Z,3.79
2023-01-17T03:03:43.388Z,3.72
2023-01-17T03:06:09.786Z,3.63
2023-01-17T03:08:36.192Z,3.56
2023-01-17T03:11:02.574Z,3.57
2023-01-17T03:13:28.945Z,3.58
2023-01-17T03:15:55.309Z,3.63
2023-01-17T03:18:21.685Z,3.66
2023-01-17T03:20:48.074Z,3.60
2023-01-17T03:23:14.472Z,3.40
2023-01-17T03:25:40.826Z,3.27
2023-01-17T03:28:07.212Z,3.27
2023-01-17T03:30:33.631Z,3.29
2023-01-17T03:33:00.055Z,3.36
2023-01-17T03:35:26.476Z,3.42
2023-01-17T03:37:52.840Z,3.37
2023-01-17T03:40:19.233Z,3.37
2023-01-17T03:42:45.624Z,3.40
2023-01-17T03:45:12.039Z,3.43
2023-01-17T03:47:38.514Z,3.44
2023-01-17T03:50:04.900Z,3.44
2023-01-17T03:52:31.307Z,3.46
2023-01-17T03:54:57.700Z,3.47
2023-01-17T03:57:24.094Z,3.41
2023-01-17T03:59:50.497Z,3.40
2023-01-17T04:02:17.137Z,3.39
2023-01-17T04:04:43.608Z,3.38
2023-01-17T04:07:09.999Z,3.46
2023-01-17T04:09:36.562Z,3.46
2023-01-17T04:12:02.956Z,3.51
2023-01-17T04:14:29.325Z,3.46
2023-01-17T04:16:55.793Z,3.49
2023-01-17T04:19:22.141Z,3.51
2023-01-17T04:21:48.511Z,3.56
2023-01-17T04:24:17.728Z,3.53
2023-01-17T04:26:44.212Z,3.60
2023-01-17T04:29:10.598Z,3.60
2023-01-17T04:31:37.003Z,3.62
2023-01-17T04:34:03.417Z,3.61
2023-01-17T04:36:29.821Z,3.68
2023-01-17T04:38:56.207Z,3.68
2023-01-17T04:41:22.575Z,3.70
2023-01-17T04:43:49.002Z,3.68
2023-01-17T04:46:15.440Z,3.60
2023-01-17T04:48:41.838Z,3.59
2023-01-17T04:51:08.262Z,3.77
2023-01-17T04:53:34.649Z,3.91
2023-01-17T04:56:01.018Z,3.87
2023-01-17T04:58:27.393Z,3.88
2023-01-17T05:00:53.861Z,3.84
2023-01-17T05:03:20.255Z,3.89
2023-01-17T05:05:46.649Z,3.74
2023-01-17T05:08:13.028Z,3.92
2023-01-17T05:10:39.419Z,3.87
2023-01-17T05:13:05.846Z,3.83
2023-01-17T05:15:32.352Z,3.73
2023-01-17T05:17:58.981Z,3.70
2023-01-17T05:20:25.367Z,3.77
2023-01-17T05:22:51.792Z,3.81
2023-01-17T05:25:18.200Z,3.85
2023-01-17T05:27:44.672Z,3.93
2023-01-17T05:30:11.074Z,3.88
2023-01-17T05:32:37.427Z,4.17
2023-01-17T05:35:04.000Z,4.12
2023-01-17T05:37:30.374Z,4.11
2023-01-17T05:39:56.759Z,4.17
2023-01-17T05:42:23.160Z,4.27
2023-01-17T05:44:49.597Z,4.28
2023-01-17T05:47:16.101Z,4.29
2023-01-17T05:49:45.085Z,4.24
2023-01-17T05:52:12.259Z,4.10
2023-01-17T05:54:39.594Z,4.20
2023-01-17T05:57:05.962Z,4.04
2023-01-17T05:59:37.282Z,4.13
2023-01-17T06:02:04.021Z,4.03
2023-01-17T06:04:30.433Z,4.07
2023-01-17T06:06:56.847Z,4.07
2023-01-17T06:09:23.261Z,4.07
2023-01-17T06:11:49.739Z,3.98
2023-01-17T06:14:16.193Z,4.06
2023-01-17T06:16:42.555Z,3.94
2023-01-17T06:19:08.970Z,3.91
2023-01-17T06:21:36.620Z,3.92
2023-01-17T06:24:04.320Z,3.92
2023-01-17T06:26:30.869Z,3.94
2023-01-17T06:28:57.265Z,4.02
2023-01-17T06:31:23.746Z,4.03
2023-01-17T06:33:50.265Z,4.09
2023-01-17T06:36:16.645Z,4.14
2023-01-17T06:38:43.062Z,4.29
2023-01-17T06:41:09.415Z,4.39
2023-01-17T06:43:35.797Z,4.31
2023-01-17T06:46:04.061Z,4.25
2023-01-17T06:48:30.515Z,4.33
2023-01-17T06:50:56.903Z,4.38
2023-01-17T06:53:23.290Z,4.31
2023-01-17T06:55:49.659Z,4.32
2023-01-17T06:58:16.228Z,4.27
2023-01-17T07:00:42.641Z,4.31
2023-01-17T07:03:09.087Z,4.40
2023-01-17T07:05:35.570Z,4.07
2023-01-17T07:08:01.954Z,3.85
2023-01-17T07:10:28.465Z,4.11
2023-01-17T07:12:54.981Z,4.05
2023-01-17T07:15:21.352Z,4.07
2023-01-17T07:17:47.777Z,4.05
